Neffs, Pennsylvania
Current Conditions -  °F | °C
As of 8:51 PM on Tuesday 21 Oct 2014 (Local Time) from KABE Reporting Station
Broken Clouds Broken Clouds  
Wind Chill: 55°   Ceiling: 5500
Heat Index: 55°   Visibility: 10mi
Dew Point: 49°   Wind: 7mph
Humidity: 80%   Direction: 50°NE
Pressure: 29.89"   Gusts: NA
Location:  40.69°N, 75.61°W
Report Text: KABE 220051Z 05006KT 10SM BKN055 BKN070 13/09 A2989 RMK AO2 RAB06E38 SLP121 P0000 T01280094
Loading
Personal Weather Stations






























Interactive Weather Map
Tropical Storm Tracking
New forecast layout! Learn more

10-Day Weather Forecast

Advertisements
Track Severe Weather on mobile